createdAt,value
2019-06-02T00:00:24.101Z,0
2019-06-02T00:01:24.077Z,0
2019-06-02T00:02:23.976Z,0
2019-06-02T00:03:24.255Z,0
2019-06-02T00:04:23.994Z,0
2019-06-02T00:05:24.469Z,0
2019-06-02T00:06:24.226Z,0
2019-06-02T00:07:24.210Z,0
2019-06-02T00:08:24.320Z,0
2019-06-02T00:09:24.281Z,0
2019-06-02T00:10:24.327Z,0
2019-06-02T00:11:24.331Z,0
2019-06-02T00:12:24.670Z,0
2019-06-02T00:13:24.642Z,0
2019-06-02T00:14:41.990Z,0
2019-06-02T00:15:24.772Z,0
2019-06-02T00:16:24.789Z,0
2019-06-02T00:17:24.955Z,0
2019-06-02T00:18:24.913Z,0
2019-06-02T00:19:24.921Z,0
2019-06-02T00:20:25.198Z,0
2019-06-02T00:21:23.823Z,0
2019-06-02T00:22:25.064Z,0
2019-06-02T00:23:25.067Z,0
2019-06-02T00:24:25.492Z,0
2019-06-02T00:25:25.163Z,0
2019-06-02T00:26:23.967Z,0
2019-06-02T00:27:23.977Z,0
2019-06-02T00:28:24.055Z,0
2019-06-02T00:29:24.064Z,0
2019-06-02T00:30:24.205Z,0
2019-06-02T00:31:24.114Z,0
2019-06-02T00:32:23.850Z,0
2019-06-02T00:33:24.138Z,0
2019-06-02T00:34:24.143Z,0
2019-06-02T00:35:23.948Z,0
2019-06-02T00:36:24.192Z,0
2019-06-02T00:37:24.231Z,0
2019-06-02T00:38:24.244Z,0
2019-06-02T00:39:24.288Z,0
2019-06-02T00:40:24.303Z,0
2019-06-02T00:41:24.339Z,0
2019-06-02T00:42:24.179Z,0
2019-06-02T00:43:23.854Z,0
2019-06-02T00:44:24.165Z,0
2019-06-02T00:45:24.181Z,0
2019-06-02T00:46:23.916Z,0
2019-06-02T00:47:24.243Z,0
2019-06-02T00:48:24.268Z,0
2019-06-02T00:49:24.526Z,0
2019-06-02T00:50:24.281Z,0
2019-06-02T00:51:24.320Z,0
2019-06-02T00:52:24.666Z,0
2019-06-02T00:53:24.353Z,0
2019-06-02T00:54:24.621Z,0
2019-06-02T00:55:24.413Z,0
2019-06-02T00:56:24.469Z,0
2019-06-02T00:57:24.446Z,0
2019-06-02T00:58:24.515Z,0
2019-06-02T00:59:24.807Z,0
2019-06-02T01:00:24.798Z,0
2019-06-02T01:01:24.808Z,0
2019-06-02T01:02:24.851Z,0
2019-06-02T01:03:24.892Z,0
2019-06-02T01:04:24.896Z,0
2019-06-02T01:05:24.959Z,0
2019-06-02T01:06:24.934Z,0
2019-06-02T01:07:24.951Z,0
2019-06-02T01:08:24.893Z,0
2019-06-02T01:09:24.499Z,0
2019-06-02T01:10:24.791Z,0
2019-06-02T01:11:24.818Z,0
2019-06-02T01:12:25.119Z,0
2019-06-02T01:13:24.846Z,0
2019-06-02T01:14:25.134Z,0
2019-06-02T01:15:25.152Z,0
2019-06-02T01:16:24.945Z,0
2019-06-02T01:17:25.205Z,0
2019-06-02T01:18:25.230Z,0
2019-06-02T01:19:25.267Z,0
2019-06-02T01:20:25.260Z,0
2019-06-02T01:21:25.331Z,0
2019-06-02T01:22:25.327Z,0
2019-06-02T01:23:25.368Z,0
2019-06-02T01:24:25.386Z,0
2019-06-02T01:25:25.395Z,0
2019-06-02T01:26:25.426Z,0
2019-06-02T01:27:25.453Z,0
2019-06-02T01:28:25.448Z,0
2019-06-02T01:29:25.266Z,0
2019-06-02T01:30:25.506Z,0
2019-06-02T01:31:25.525Z,0
2019-06-02T01:32:25.595Z,0
2019-06-02T01:33:25.341Z,0
2019-06-02T01:34:25.646Z,0
2019-06-02T01:35:25.400Z,0
2019-06-02T01:36:25.654Z,0
2019-06-02T01:37:25.718Z,0
2019-06-02T01:38:25.675Z,0
2019-06-02T01:39:25.477Z,0
2019-06-02T01:40:25.757Z,0
2019-06-02T01:41:25.791Z,0
2019-06-02T01:42:25.799Z,0
2019-06-02T01:43:25.888Z,0
2019-06-02T01:44:25.917Z,0
2019-06-02T01:45:43.733Z,0
2019-06-02T01:46:25.894Z,0
2019-06-02T01:47:25.911Z,0
2019-06-02T01:48:26.287Z,0
2019-06-02T01:49:25.961Z,0
2019-06-02T01:50:25.957Z,0
2019-06-02T01:51:25.744Z,0
2019-06-02T01:52:26.054Z,0
2019-06-02T01:53:26.095Z,0
2019-06-02T01:54:26.093Z,0
2019-06-02T01:55:26.100Z,0
2019-06-02T01:56:26.241Z,0
2019-06-02T01:57:25.899Z,0
2019-06-02T01:58:25.899Z,0
2019-06-02T01:59:26.194Z,0
2019-06-02T02:00:26.267Z,0
2019-06-02T02:01:26.321Z,0
2019-06-02T02:02:26.262Z,0
2019-06-02T02:03:26.150Z,0
2019-06-02T02:04:26.324Z,0
2019-06-02T02:05:26.098Z,0
2019-06-02T02:06:26.120Z,0
2019-06-02T02:07:26.367Z,0
2019-06-02T02:08:26.423Z,0
2019-06-02T02:09:26.445Z,0
2019-06-02T02:10:26.464Z,0
2019-06-02T02:11:26.223Z,0
2019-06-02T02:12:26.311Z,0
2019-06-02T02:13:26.028Z,0
2019-06-02T02:14:26.562Z,0
2019-06-02T02:15:42.971Z,0
2019-06-02T02:16:26.402Z,0
2019-06-02T02:17:26.603Z,0
2019-06-02T02:18:26.357Z,0
2019-06-02T02:19:26.701Z,0
2019-06-02T02:20:26.661Z,0
2019-06-02T02:21:26.452Z,0
2019-06-02T02:22:26.757Z,0
2019-06-02T02:23:26.739Z,0
2019-06-02T02:24:26.559Z,0
2019-06-02T02:25:26.557Z,0
2019-06-02T02:26:26.812Z,0
2019-06-02T02:27:26.826Z,0
2019-06-02T02:28:27.101Z,0
2019-06-02T02:29:26.880Z,0
2019-06-02T02:30:26.960Z,0
2019-06-02T02:31:26.985Z,0
2019-06-02T02:32:27.011Z,0
2019-06-02T02:33:26.813Z,0
2019-06-02T02:34:26.763Z,4
2019-06-02T02:35:26.539Z,4
2019-06-02T02:36:26.849Z,0
2019-06-02T02:37:27.096Z,0
2019-06-02T02:38:27.167Z,4
2019-06-02T02:39:27.146Z,4
2019-06-02T02:40:27.191Z,4
2019-06-02T02:41:27.176Z,4
2019-06-02T02:42:27.205Z,4
2019-06-02T02:43:27.232Z,4
2019-06-02T02:44:27.258Z,4
2019-06-02T02:45:27.035Z,4
2019-06-02T02:46:27.025Z,8
2019-06-02T02:47:27.335Z,4
2019-06-02T02:48:27.337Z,8
2019-06-02T02:49:27.115Z,8
2019-06-02T02:50:27.379Z,8
2019-06-02T02:51:27.150Z,8
2019-06-02T02:52:27.427Z,12
2019-06-02T02:53:27.445Z,12
2019-06-02T02:54:27.227Z,12
2019-06-02T02:55:27.545Z,12
2019-06-02T02:56:27.045Z,16
2019-06-02T02:57:27.548Z,16
2019-06-02T02:58:27.570Z,16
2019-06-02T02:59:27.345Z,16
2019-06-02T03:00:26.853Z,20
2019-06-02T03:01:27.638Z,24
2019-06-02T03:02:27.394Z,28
2019-06-02T03:03:27.424Z,28
2019-06-02T03:04:27.730Z,28
2019-06-02T03:05:27.744Z,32
2019-06-02T03:06:27.762Z,36
2019-06-02T03:07:27.760Z,40
2019-06-02T03:08:27.767Z,44
2019-06-02T03:09:27.560Z,52
2019-06-02T03:10:27.586Z,56
2019-06-02T03:11:27.888Z,60
2019-06-02T03:12:27.947Z,64
2019-06-02T03:13:27.627Z,68
2019-06-02T03:14:27.965Z,76
2019-06-02T03:15:27.934Z,80
2019-06-02T03:16:44.841Z,88
2019-06-02T03:17:31.571Z,92
2019-06-02T03:18:28.030Z,96
2019-06-02T03:19:27.548Z,100
2019-06-02T03:20:28.076Z,108
2019-06-02T03:21:27.860Z,112
2019-06-02T03:22:28.119Z,120
2019-06-02T03:23:28.135Z,120
2019-06-02T03:24:28.008Z,128
2019-06-02T03:25:28.188Z,132
2019-06-02T03:26:27.951Z,140
2019-06-02T03:27:28.235Z,144
2019-06-02T03:28:28.255Z,152
2019-06-02T03:29:28.267Z,156
2019-06-02T03:30:28.390Z,160
2019-06-02T03:31:28.353Z,168
2019-06-02T03:32:28.344Z,172
2019-06-02T03:33:28.426Z,180
2019-06-02T03:34:28.175Z,184
2019-06-02T03:35:28.455Z,192
2019-06-02T03:36:28.449Z,200
2019-06-02T03:37:28.476Z,204
2019-06-02T03:38:28.457Z,204
2019-06-02T03:39:28.501Z,208
2019-06-02T03:40:28.513Z,212
2019-06-02T03:41:28.293Z,212
2019-06-02T03:42:28.562Z,216
2019-06-02T03:43:28.563Z,216
2019-06-02T03:44:28.613Z,216
2019-06-02T03:45:28.365Z,212
2019-06-02T03:46:28.648Z,208
2019-06-02T03:47:28.427Z,212
2019-06-02T03:48:28.700Z,212
2019-06-02T03:49:29.352Z,216
2019-06-02T03:50:28.240Z,220
2019-06-02T03:51:28.758Z,228
2019-06-02T03:52:28.793Z,236
2019-06-02T03:53:28.561Z,240
2019-06-02T03:54:28.863Z,244
2019-06-02T03:55:28.940Z,244
2019-06-02T03:56:28.909Z,240
2019-06-02T03:57:28.665Z,232
2019-06-02T03:58:28.905Z,224
2019-06-02T03:59:28.927Z,216
2019-06-02T04:00:28.691Z,204
2019-06-02T04:01:28.877Z,200
2019-06-02T04:02:29.014Z,192
2019-06-02T04:03:29.036Z,192
2019-06-02T04:04:29.059Z,188
2019-06-02T04:05:29.066Z,188
2019-06-02T04:06:29.112Z,188
2019-06-02T04:07:28.858Z,188
2019-06-02T04:08:29.161Z,192
2019-06-02T04:09:29.272Z,192
2019-06-02T04:10:29.186Z,192
2019-06-02T04:11:28.951Z,196
2019-06-02T04:12:28.954Z,192
2019-06-02T04:13:29.004Z,196
2019-06-02T04:14:29.299Z,200
2019-06-02T04:15:29.330Z,200
2019-06-02T04:16:29.311Z,200
2019-06-02T04:17:29.358Z,200
2019-06-02T04:18:29.369Z,200
2019-06-02T04:19:29.390Z,204
2019-06-02T04:20:29.387Z,204
2019-06-02T04:21:29.450Z,204
2019-06-02T04:22:29.450Z,204
2019-06-02T04:23:29.475Z,208
2019-06-02T04:24:29.535Z,208
2019-06-02T04:25:29.514Z,208
2019-06-02T04:26:29.541Z,208
2019-06-02T04:27:29.591Z,212
2019-06-02T04:28:29.575Z,212
2019-06-02T04:29:29.605Z,216
2019-06-02T04:30:29.615Z,212
2019-06-02T04:31:30.526Z,216
2019-06-02T04:32:29.171Z,220
2019-06-02T04:33:29.752Z,216
2019-06-02T04:34:29.747Z,220
2019-06-02T04:35:29.735Z,220
2019-06-02T04:36:29.779Z,224
2019-06-02T04:37:34.670Z,228
2019-06-02T04:38:29.834Z,224
2019-06-02T04:39:29.845Z,228
2019-06-02T04:40:29.844Z,228
2019-06-02T04:41:29.873Z,228
2019-06-02T04:42:29.649Z,232
2019-06-02T04:43:31.229Z,232
2019-06-02T04:44:29.932Z,236
2019-06-02T04:45:30.023Z,236
2019-06-02T04:46:29.726Z,236
2019-06-02T04:47:44.461Z,240
2019-06-02T04:48:30.246Z,240
2019-06-02T04:49:30.092Z,236
2019-06-02T04:50:30.090Z,240
2019-06-02T04:51:30.111Z,240
2019-06-02T04:52:30.119Z,240
2019-06-02T04:53:30.144Z,244
2019-06-02T04:54:30.171Z,244
2019-06-02T04:55:30.212Z,244
2019-06-02T04:56:29.971Z,244
2019-06-02T04:57:30.220Z,248
2019-06-02T04:58:30.304Z,244
2019-06-02T04:59:30.277Z,248
2019-06-02T05:00:30.327Z,252
2019-06-02T05:01:30.343Z,256
2019-06-02T05:02:30.365Z,260
2019-06-02T05:03:32.661Z,264
2019-06-02T05:04:30.430Z,268
2019-06-02T05:05:30.565Z,272
2019-06-02T05:06:30.433Z,280
2019-06-02T05:07:30.455Z,288
2019-06-02T05:08:30.484Z,300
2019-06-02T05:09:30.470Z,308
2019-06-02T05:10:30.531Z,316
2019-06-02T05:11:30.516Z,320
2019-06-02T05:12:30.558Z,328
2019-06-02T05:13:30.559Z,332
2019-06-02T05:14:30.634Z,340
2019-06-02T05:15:30.622Z,344
2019-06-02T05:16:30.634Z,344
2019-06-02T05:17:30.688Z,348
2019-06-02T05:18:30.691Z,344
2019-06-02T05:19:30.789Z,336
2019-06-02T05:20:30.744Z,328
2019-06-02T05:21:30.782Z,316
2019-06-02T05:22:30.865Z,304
2019-06-02T05:23:30.804Z,296
2019-06-02T05:24:32.536Z,292
2019-06-02T05:25:30.844Z,288
2019-06-02T05:26:30.858Z,288
2019-06-02T05:27:30.620Z,296
2019-06-02T05:28:30.908Z,296
2019-06-02T05:29:30.929Z,304
2019-06-02T05:30:30.950Z,312
2019-06-02T05:31:30.722Z,316
2019-06-02T05:32:31.028Z,324
2019-06-02T05:33:31.040Z,336
2019-06-02T05:34:31.070Z,348
2019-06-02T05:35:31.118Z,356
2019-06-02T05:36:31.336Z,368
2019-06-02T05:37:31.155Z,380
2019-06-02T05:38:31.151Z,392
2019-06-02T05:39:31.184Z,396
2019-06-02T05:40:31.182Z,404
2019-06-02T05:41:31.233Z,412
2019-06-02T05:42:31.219Z,420
2019-06-02T05:43:31.249Z,432
2019-06-02T05:44:31.264Z,424
2019-06-02T05:45:31.303Z,444
2019-06-02T05:46:31.049Z,452
2019-06-02T05:47:31.334Z,448
2019-06-02T05:48:31.334Z,448
2019-06-02T05:49:31.146Z,444
2019-06-02T05:50:31.392Z,440
2019-06-02T05:51:31.277Z,444
2019-06-02T05:52:31.414Z,452
2019-06-02T05:53:31.201Z,460
2019-06-02T05:54:34.919Z,472
2019-06-02T05:55:31.349Z,480
2019-06-02T05:56:31.542Z,492
2019-06-02T05:57:31.584Z,500
2019-06-02T05:58:31.339Z,512
2019-06-02T05:59:31.593Z,528
2019-06-02T06:00:31.348Z,560
2019-06-02T06:01:31.152Z,580
2019-06-02T06:02:31.671Z,600
2019-06-02T06:03:31.682Z,608
2019-06-02T06:04:31.474Z,616
2019-06-02T06:05:32.237Z,620
2019-06-02T06:06:31.273Z,616
2019-06-02T06:07:31.808Z,604
2019-06-02T06:08:31.274Z,592
2019-06-02T06:10:50.794Z,576
2019-06-02T06:11:01.660Z,576
2019-06-02T06:12:02.264Z,576
2019-06-02T06:13:01.991Z,576
2019-06-02T06:14:02.590Z,572
2019-06-02T06:15:01.855Z,576
2019-06-02T06:16:06.850Z,580
2019-06-02T06:17:00.612Z,580
2019-06-02T06:18:03.005Z,576
2019-06-02T06:19:00.956Z,576
2019-06-02T06:20:00.636Z,584
2019-06-02T06:21:03.161Z,584
2019-06-02T06:22:01.500Z,584
2019-06-02T06:23:01.391Z,584
2019-06-02T06:24:03.280Z,592
2019-06-02T06:25:03.321Z,592
2019-06-02T06:26:05.359Z,584
2019-06-02T06:27:01.704Z,568
2019-06-02T06:28:03.822Z,548
2019-06-02T06:29:03.856Z,528
2019-06-02T06:30:02.409Z,508
2019-06-02T06:31:04.937Z,484
2019-06-02T06:32:04.093Z,468
2019-06-02T06:33:02.152Z,452
2019-06-02T06:34:02.211Z,440
2019-06-02T06:35:02.627Z,428
2019-06-02T06:36:02.578Z,416
2019-06-02T06:37:02.473Z,412
2019-06-02T06:38:02.466Z,404
2019-06-02T06:39:31.730Z,392
2019-06-02T06:40:02.743Z,388
2019-06-02T06:41:03.296Z,380
2019-06-02T06:42:03.529Z,372
2019-06-02T06:43:03.084Z,364
2019-06-02T06:44:01.872Z,364
2019-06-02T06:45:02.875Z,360
2019-06-02T06:46:03.290Z,360
2019-06-02T06:47:02.690Z,360
2019-06-02T06:48:04.508Z,364
2019-06-02T06:49:06.277Z,360
2019-06-02T06:50:07.239Z,360
2019-06-02T06:51:02.582Z,364
2019-06-02T06:52:03.188Z,360
2019-06-02T06:53:02.917Z,360
2019-06-02T06:54:03.333Z,360
2019-06-02T06:55:03.613Z,356
2019-06-02T06:56:03.050Z,356
2019-06-02T06:57:03.459Z,360
2019-06-02T06:58:04.407Z,356
2019-06-02T06:59:08.959Z,360
2019-06-02T07:00:02.768Z,360
2019-06-02T07:01:05.530Z,360
2019-06-02T07:02:02.732Z,360
2019-06-02T07:03:03.781Z,360
2019-06-02T07:04:04.866Z,360
2019-06-02T07:05:05.346Z,360
2019-06-02T07:06:05.069Z,356
2019-06-02T07:07:03.390Z,356
2019-06-02T07:08:06.476Z,360
2019-06-02T07:09:02.014Z,364
2019-06-02T07:10:03.443Z,364
2019-06-02T07:11:08.536Z,376
2019-06-02T07:12:03.088Z,376
2019-06-02T07:13:03.620Z,380
2019-06-02T07:14:03.804Z,380
2019-06-02T07:15:03.914Z,380
2019-06-02T07:16:08.317Z,380
2019-06-02T07:17:03.949Z,380
2019-06-02T07:18:08.427Z,376
2019-06-02T07:19:23.487Z,376
2019-06-02T07:20:03.980Z,372
2019-06-02T07:21:04.718Z,372
2019-06-02T07:22:06.534Z,376
2019-06-02T07:23:04.483Z,376
2019-06-02T07:24:05.317Z,376
2019-06-02T07:25:03.522Z,376
2019-06-02T07:26:05.303Z,380
2019-06-02T07:27:04.139Z,380
2019-06-02T07:28:03.309Z,384
2019-06-02T07:29:05.421Z,384
2019-06-02T07:30:03.375Z,388
2019-06-02T07:31:03.314Z,392
2019-06-02T07:32:03.693Z,392
2019-06-02T07:33:05.691Z,392
2019-06-02T07:34:03.643Z,392
2019-06-02T07:35:02.427Z,400
2019-06-02T07:36:04.033Z,400
2019-06-02T07:37:03.022Z,404
2019-06-02T07:38:04.586Z,404
2019-06-02T07:39:02.479Z,408
2019-06-02T07:40:06.083Z,416
2019-06-02T07:41:12.668Z,416
2019-06-02T07:42:02.777Z,416
2019-06-02T07:43:04.918Z,420
2019-06-02T07:44:03.007Z,420
2019-06-02T07:45:04.971Z,432
2019-06-02T07:46:05.030Z,436
2019-06-02T07:47:05.323Z,436
2019-06-02T07:48:05.388Z,440
2019-06-02T07:49:05.626Z,444
2019-06-02T07:50:05.096Z,448
2019-06-02T07:51:05.388Z,456
2019-06-02T07:52:05.895Z,464
2019-06-02T07:53:05.728Z,464
2019-06-02T07:54:05.832Z,468
2019-06-02T07:55:05.898Z,472
2019-06-02T07:56:06.562Z,476
2019-06-02T07:57:05.964Z,480
2019-06-02T07:58:05.900Z,484
2019-06-02T07:59:06.953Z,488
2019-06-02T08:00:06.071Z,492
2019-06-02T08:01:06.716Z,496
2019-06-02T08:02:06.593Z,504
2019-06-02T08:03:04.333Z,508
2019-06-02T08:04:06.462Z,512
2019-06-02T08:05:06.374Z,516
2019-06-02T08:06:13.023Z,520
2019-06-02T08:07:04.287Z,524
2019-06-02T08:08:04.638Z,528
2019-06-02T08:09:04.680Z,532
2019-06-02T08:10:05.093Z,540
2019-06-02T08:11:04.423Z,548
2019-06-02T08:12:05.010Z,552
2019-06-02T08:13:04.407Z,560
2019-06-02T08:14:04.554Z,564
2019-06-02T08:15:06.902Z,572
2019-06-02T08:16:04.913Z,584
2019-06-02T08:17:04.928Z,584
2019-06-02T08:18:04.970Z,596
2019-06-02T08:19:04.603Z,600
2019-06-02T08:20:05.416Z,608
2019-06-02T08:21:04.412Z,612
2019-06-02T08:22:03.175Z,620
2019-06-02T08:23:05.138Z,624
2019-06-02T08:24:06.774Z,628
2019-06-02T08:25:03.216Z,632
2019-06-02T08:26:05.175Z,640
2019-06-02T08:27:04.576Z,648
2019-06-02T08:28:04.691Z,656
2019-06-02T08:29:04.841Z,656
2019-06-02T08:30:07.026Z,656
2019-06-02T08:31:04.952Z,660
2019-06-02T08:32:05.253Z,668
2019-06-02T08:33:03.502Z,672
2019-06-02T08:34:05.017Z,676
2019-06-02T08:35:03.731Z,680
2019-06-02T08:36:04.035Z,688
2019-06-02T08:37:03.750Z,692
2019-06-02T08:38:04.789Z,704
2019-06-02T08:39:05.879Z,708
2019-06-02T08:40:04.207Z,716
2019-06-02T08:41:04.142Z,720
2019-06-02T08:42:09.804Z,724
2019-06-02T08:43:05.807Z,732
2019-06-02T08:44:05.876Z,740
2019-06-02T08:45:04.185Z,740
2019-06-02T08:46:04.316Z,748
2019-06-02T08:47:05.837Z,756
2019-06-02T08:48:04.427Z,760
2019-06-02T08:49:04.385Z,764
2019-06-02T08:50:23.886Z,776
2019-06-02T08:51:04.135Z,780
2019-06-02T08:52:19.165Z,788
2019-06-02T08:53:04.432Z,796
2019-06-02T08:54:04.654Z,804
2019-06-02T08:55:06.740Z,816
2019-06-02T08:56:06.378Z,820
2019-06-02T08:57:04.952Z,820
2019-06-02T08:58:08.957Z,836
2019-06-02T08:59:04.699Z,840
2019-06-02T09:00:06.923Z,852
2019-06-02T09:01:06.515Z,852
2019-06-02T09:02:04.935Z,860
2019-06-02T09:03:05.061Z,868
2019-06-02T09:04:05.772Z,880
2019-06-02T09:05:06.061Z,888
2019-06-02T09:06:05.822Z,896
2019-06-02T09:07:06.154Z,904
2019-06-02T09:08:06.226Z,908
2019-06-02T09:09:06.174Z,920
2019-06-02T09:10:06.283Z,924
2019-06-02T09:11:06.030Z,932
2019-06-02T09:12:06.463Z,940
2019-06-02T09:13:06.199Z,948
2019-06-02T09:14:05.382Z,952
2019-06-02T09:15:04.822Z,960
2019-06-02T09:16:05.010Z,956
2019-06-02T09:17:05.076Z,960
2019-06-02T09:18:04.921Z,984
2019-06-02T09:19:06.161Z,1004
2019-06-02T09:20:05.140Z,1016
2019-06-02T09:21:06.390Z,1032
2019-06-02T09:22:05.092Z,1044
2019-06-02T09:23:06.193Z,1056
2019-06-02T09:24:05.265Z,1064
2019-06-02T09:25:06.163Z,1076
2019-06-02T09:26:05.333Z,1084
2019-06-02T09:27:11.088Z,1092
2019-06-02T09:28:05.453Z,1100
2019-06-02T09:29:06.797Z,1104
2019-06-02T09:30:05.642Z,1084
2019-06-02T09:31:06.631Z,1080
2019-06-02T09:32:05.821Z,1080
2019-06-02T09:33:05.288Z,1080
2019-06-02T09:34:06.655Z,1084
2019-06-02T09:35:07.057Z,1108
2019-06-02T09:36:06.771Z,1104
2019-06-02T09:37:05.376Z,1116
2019-06-02T09:38:05.134Z,1132
2019-06-02T09:39:05.414Z,1144
2019-06-02T09:40:05.285Z,1136
2019-06-02T09:41:05.468Z,1136
2019-06-02T09:42:05.291Z,1148
2019-06-02T09:43:05.567Z,1172
2019-06-02T09:44:07.154Z,1184
2019-06-02T09:45:05.601Z,1196
2019-06-02T09:46:07.306Z,1200
2019-06-02T09:47:06.921Z,1208
2019-06-02T09:48:07.272Z,1220
2019-06-02T09:49:07.157Z,1224
2019-06-02T09:50:06.726Z,1236
2019-06-02T09:51:07.270Z,1248
2019-06-02T09:52:05.553Z,1256
2019-06-02T09:53:07.268Z,1260
2019-06-02T09:54:07.193Z,1268
2019-06-02T09:55:06.976Z,1276
2019-06-02T09:56:06.602Z,1296
2019-06-02T09:57:06.969Z,1316
2019-06-02T09:58:07.517Z,1332
2019-06-02T09:59:07.400Z,1340
2019-06-02T10:00:07.461Z,1340
2019-06-02T10:01:07.178Z,1336
2019-06-02T10:02:07.356Z,1336
2019-06-02T10:03:07.518Z,1340
2019-06-02T10:04:06.203Z,1348
2019-06-02T10:05:06.916Z,1360
2019-06-02T10:06:08.322Z,1368
2019-06-02T10:07:07.554Z,1400
2019-06-02T10:08:07.803Z,1424
2019-06-02T10:09:07.484Z,1436
2019-06-02T10:10:08.003Z,1444
2019-06-02T10:11:07.804Z,1456
2019-06-02T10:12:06.416Z,1468
2019-06-02T10:13:08.042Z,1476
2019-06-02T10:14:07.859Z,1480
2019-06-02T10:15:06.497Z,1492
2019-06-02T10:16:07.959Z,1508
2019-06-02T10:17:10.187Z,1520
2019-06-02T10:18:07.673Z,1508
2019-06-02T10:19:08.373Z,1508
2019-06-02T10:20:06.121Z,1500
2019-06-02T10:21:14.695Z,1524
2019-06-02T10:22:07.745Z,1520
2019-06-02T10:23:08.273Z,1548
2019-06-02T10:24:10.391Z,1528
2019-06-02T10:25:06.522Z,1548
2019-06-02T10:26:08.584Z,1580
2019-06-02T10:27:08.697Z,1596
2019-06-02T10:28:08.206Z,1596
2019-06-02T10:29:08.343Z,1588
2019-06-02T10:30:06.692Z,1592
2019-06-02T10:31:08.253Z,1588
2019-06-02T10:32:07.199Z,1604
2019-06-02T10:33:08.360Z,1620
2019-06-02T10:34:09.125Z,1644
2019-06-02T10:35:07.104Z,1668
2019-06-02T10:36:08.554Z,1672
2019-06-02T10:37:08.376Z,1672
2019-06-02T10:38:07.162Z,1684
2019-06-02T10:39:09.110Z,1700
2019-06-02T10:40:07.022Z,1720
2019-06-02T10:41:08.605Z,1748
2019-06-02T10:42:08.852Z,1760
2019-06-02T10:43:08.959Z,1772
2019-06-02T10:44:07.382Z,1768
2019-06-02T10:45:07.134Z,1768
2019-06-02T10:46:07.417Z,1764
2019-06-02T10:47:07.992Z,1764
2019-06-02T10:48:11.662Z,1780
2019-06-02T10:49:07.580Z,1792
2019-06-02T10:50:11.366Z,1816
2019-06-02T10:51:33.441Z,1836
2019-06-02T10:52:07.892Z,1844
2019-06-02T10:53:07.668Z,1868
2019-06-02T10:54:08.683Z,1884
2019-06-02T10:55:07.910Z,1888
2019-06-02T10:56:07.967Z,1876
2019-06-02T10:57:08.051Z,1908
2019-06-02T10:58:08.461Z,1928
2019-06-02T10:59:08.127Z,1952
2019-06-02T11:00:13.694Z,1948
2019-06-02T11:01:08.358Z,1964
2019-06-02T11:02:08.350Z,1972
2019-06-02T11:03:08.703Z,1984
2019-06-02T11:04:08.632Z,1984
2019-06-02T11:05:08.485Z,1984
2019-06-02T11:06:08.551Z,1988
2019-06-02T11:07:11.192Z,2004
2019-06-02T11:08:08.783Z,2024
2019-06-02T11:09:08.676Z,2052
2019-06-02T11:10:10.579Z,2064
2019-06-02T11:11:08.933Z,2072
2019-06-02T11:12:08.980Z,2080
2019-06-02T11:13:09.538Z,2104
2019-06-02T11:14:09.461Z,2124
2019-06-02T11:15:09.322Z,2152
2019-06-02T11:16:09.647Z,2152
2019-06-02T11:17:10.008Z,2156
2019-06-02T11:18:09.630Z,2172
2019-06-02T11:19:09.638Z,2184
2019-06-02T11:20:13.816Z,2212
2019-06-02T11:21:09.826Z,2236
2019-06-02T11:22:10.084Z,2236
2019-06-02T11:23:10.036Z,2268
2019-06-02T11:24:10.120Z,2272
2019-06-02T11:25:08.445Z,2296
2019-06-02T11:26:08.461Z,2292
2019-06-02T11:27:08.760Z,2292
2019-06-02T11:28:10.448Z,2360
2019-06-02T11:29:09.082Z,2420
2019-06-02T11:30:08.871Z,2452
2019-06-02T11:31:09.167Z,2460
2019-06-02T11:32:09.264Z,2484
2019-06-02T11:33:09.239Z,2516
2019-06-02T11:34:09.346Z,2520
2019-06-02T11:35:09.168Z,2540
2019-06-02T11:36:09.400Z,2572
2019-06-02T11:37:09.076Z,2604
2019-06-02T11:38:09.144Z,2644
2019-06-02T11:39:09.150Z,2688
2019-06-02T11:40:08.942Z,2748
2019-06-02T11:41:09.474Z,2752
2019-06-02T11:42:09.628Z,2764
2019-06-02T11:43:09.567Z,2812
2019-06-02T11:44:09.572Z,2856
2019-06-02T11:45:12.313Z,2880
2019-06-02T11:46:09.808Z,2880
2019-06-02T11:47:09.434Z,2904
2019-06-02T11:48:09.267Z,2888
2019-06-02T11:49:09.737Z,2892
2019-06-02T11:50:09.529Z,2916
2019-06-02T11:51:09.566Z,2936
2019-06-02T11:52:09.623Z,2964
2019-06-02T11:53:09.635Z,2984
2019-06-02T11:54:09.938Z,3048
2019-06-02T11:55:09.704Z,3080
2019-06-02T11:56:09.479Z,3052
2019-06-02T11:57:09.782Z,3084
2019-06-02T11:58:09.570Z,3100
2019-06-02T11:59:10.177Z,3052
2019-06-02T12:00:10.204Z,3064
2019-06-02T12:01:10.606Z,3100
2019-06-02T12:02:14.521Z,3120
2019-06-02T12:03:10.253Z,3056
2019-06-02T12:04:10.021Z,3156
2019-06-02T12:05:09.792Z,3288
2019-06-02T12:06:10.366Z,3364
2019-06-02T12:07:10.390Z,3444
2019-06-02T12:08:14.236Z,3548
2019-06-02T12:09:10.192Z,3596
2019-06-02T12:10:10.265Z,3608
2019-06-02T12:11:10.526Z,3620
2019-06-02T12:12:10.561Z,3588
2019-06-02T12:13:10.543Z,3460
2019-06-02T12:14:10.377Z,3400
2019-06-02T12:15:10.671Z,3220
2019-06-02T12:16:10.705Z,3316
2019-06-02T12:17:10.777Z,3460
2019-06-02T12:18:10.626Z,3436
2019-06-02T12:19:13.239Z,3488
2019-06-02T12:20:10.826Z,3588
2019-06-02T12:21:11.206Z,3564
2019-06-02T12:22:26.174Z,3612
2019-06-02T12:23:10.709Z,3580
2019-06-02T12:24:11.012Z,3704
2019-06-02T12:25:10.815Z,3656
2019-06-02T12:26:11.076Z,3640
2019-06-02T12:27:10.841Z,3508
2019-06-02T12:28:11.117Z,3544
2019-06-02T12:29:10.883Z,3496
2019-06-02T12:30:10.662Z,3512
2019-06-02T12:31:10.718Z,3560
2019-06-02T12:32:11.275Z,3568
2019-06-02T12:33:11.119Z,3532
2019-06-02T12:34:11.341Z,3504
2019-06-02T12:35:10.907Z,3540
2019-06-02T12:36:11.410Z,3700
2019-06-02T12:37:11.518Z,3752
2019-06-02T12:38:11.522Z,3852
2019-06-02T12:39:11.642Z,3756
2019-06-02T12:40:11.038Z,3748
2019-06-02T12:41:11.635Z,3792
2019-06-02T12:42:14.648Z,3756
2019-06-02T12:43:11.175Z,3648
2019-06-02T12:44:11.214Z,3696
2019-06-02T12:45:11.511Z,3744
2019-06-02T12:46:11.774Z,3764
2019-06-02T12:47:11.825Z,3772
2019-06-02T12:48:11.870Z,3788
2019-06-02T12:49:12.191Z,3800
2019-06-02T12:50:11.942Z,3784
2019-06-02T12:51:11.972Z,3896
2019-06-02T12:52:42.980Z,3836
2019-06-02T12:53:11.796Z,3844
2019-06-02T12:54:12.085Z,3856
2019-06-02T12:55:17.160Z,3848
2019-06-02T12:56:12.136Z,3936
2019-06-02T12:57:12.166Z,4072
2019-06-02T12:58:11.976Z,4084
2019-06-02T12:59:12.279Z,4100
2019-06-02T13:00:12.035Z,4088
2019-06-02T13:01:12.336Z,4088
2019-06-02T13:02:12.375Z,4088
2019-06-02T13:03:12.395Z,4060
2019-06-02T13:04:12.421Z,4096
2019-06-02T13:05:12.479Z,4132
2019-06-02T13:06:12.555Z,4144
2019-06-02T13:07:12.540Z,3996
2019-06-02T13:08:12.790Z,3672
2019-06-02T13:09:12.611Z,3888
2019-06-02T13:10:11.913Z,4272
2019-06-02T13:11:12.710Z,4420
2019-06-02T13:12:12.758Z,4380
2019-06-02T13:13:12.779Z,4604
2019-06-02T13:14:12.529Z,4656
2019-06-02T13:15:12.604Z,4812
2019-06-02T13:16:12.905Z,4936
2019-06-02T13:17:12.679Z,4960
2019-06-02T13:18:12.722Z,4940
2019-06-02T13:19:12.977Z,4952
2019-06-02T13:20:12.782Z,5008
2019-06-02T13:21:13.113Z,5080
2019-06-02T13:22:13.164Z,5148
2019-06-02T13:23:26.662Z,5216
2019-06-02T13:24:13.182Z,5172
2019-06-02T13:25:12.720Z,5208
2019-06-02T13:26:13.267Z,5144
2019-06-02T13:27:13.027Z,5160
2019-06-02T13:28:14.078Z,5312
2019-06-02T13:29:13.096Z,5332
2019-06-02T13:30:13.197Z,5400
2019-06-02T13:31:13.453Z,5344
2019-06-02T13:32:13.493Z,4932
2019-06-02T13:33:13.523Z,4540
2019-06-02T13:34:18.854Z,4752
2019-06-02T13:35:13.098Z,4772
2019-06-02T13:36:13.685Z,4620
2019-06-02T13:37:13.667Z,4424
2019-06-02T13:38:13.250Z,4752
2019-06-02T13:39:13.495Z,4832
2019-06-02T13:40:13.557Z,4848
2019-06-02T13:41:13.854Z,5348
2019-06-02T13:42:13.860Z,5332
2019-06-02T13:43:13.930Z,5224
2019-06-02T13:44:13.944Z,5128
2019-06-02T13:45:13.798Z,5076
2019-06-02T13:46:13.849Z,5308
2019-06-02T13:47:13.987Z,5380
2019-06-02T13:48:14.150Z,5072
2019-06-02T13:49:14.250Z,5316
2019-06-02T13:50:13.887Z,5452